Time;durP1;ratioP1;P1;durP2;ratioP2;P2;SDS_P1;SDS_P2;PMS_P1;PMS_P2;Temp;Humidity;BMP_temperature;BMP_pressure;BME280_temperature;BME280_humidity;BME280_pressure;Samples;Min_cycle;Max_cycle;Signal;HPM_P1;HPM_P2
2022/05/10 00:01:25;;;;;;;23.05;13.77;;;;;;;16.36;100.00;101125.63;5033945;28;20037;-82
2022/05/10 00:03:53;;;;;;;23.60;13.70;;;;;;;16.11;100.00;101118.91;5033684;28;20117;-83
2022/05/10 00:06:19;;;;;;;24.35;14.02;;;;;;;16.11;100.00;101124.25;5033802;28;20045;-81
2022/05/10 00:08:45;;;;;;;19.50;13.60;;;;;;;16.14;100.00;101123.88;5033532;28;20033;-81
2022/05/10 00:11:11;;;;;;;21.17;14.43;;;;;;;15.97;100.00;101128.56;5033542;28;20079;-84
2022/05/10 00:13:37;;;;;;;20.02;13.40;;;;;;;15.78;100.00;101124.56;5033540;28;20392;-82
2022/05/10 00:16:11;;;;;;;23.05;15.00;;;;;;;15.70;100.00;101132.66;5033612;28;20042;-84
2022/05/10 00:18:40;;;;;;;26.52;14.05;;;;;;;15.52;100.00;101124.13;5033763;28;20036;-83
2022/05/10 00:21:06;;;;;;;23.45;14.40;;;;;;;15.43;100.00;101135.84;5034176;28;20033;-83
2022/05/10 00:23:32;;;;;;;20.60;14.43;;;;;;;15.69;100.00;101131.00;5042519;28;20037;-81
2022/05/10 00:25:57;;;;;;;23.30;13.80;;;;;;;15.61;100.00;101128.38;5051328;28;20052;-83
2022/05/10 00:28:23;;;;;;;25.00;14.95;;;;;;;15.59;100.00;101127.75;5051641;28;20045;-82
2022/05/10 00:30:48;;;;;;;20.02;13.95;;;;;;;15.69;100.00;101119.47;5048731;28;20073;-82
2022/05/10 00:33:18;;;;;;;22.70;14.88;;;;;;;15.69;100.00;101125.66;5049160;28;20037;-82
2022/05/10 00:35:44;;;;;;;20.10;13.88;;;;;;;15.63;100.00;101131.72;5039429;28;20057;-82
2022/05/10 00:38:11;;;;;;;20.75;13.85;;;;;;;15.76;100.00;101123.91;5034021;28;20576;-83
2022/05/10 00:40:37;;;;;;;19.00;13.23;;;;;;;15.90;100.00;101117.78;5034093;28;20034;-84
2022/05/10 00:43:03;;;;;;;17.42;13.55;;;;;;;15.97;100.00;101113.34;5033098;28;20037;-83
2022/05/10 00:45:44;;;;;;;22.05;13.27;;;;;;;16.02;100.00;101116.31;5033616;28;20040;-81
2022/05/10 00:48:14;;;;;;;15.43;9.80;;;;;;;16.10;100.00;101117.25;5032980;28;20030;-82
2022/05/10 00:50:49;;;;;;;24.52;12.85;;;;;;;16.12;100.00;101109.84;5033323;28;20041;-83
2022/05/10 00:53:24;;;;;;;21.02;13.13;;;;;;;16.21;100.00;101114.09;5033290;28;20038;-81
2022/05/10 00:56:12;;;;;;;21.17;13.23;;;;;;;16.17;100.00;101107.47;5033424;28;20037;-80
2022/05/10 00:59:05;;;;;;;22.00;12.82;;;;;;;15.92;100.00;101113.06;5033305;28;20048;-84
2022/05/10 01:01:33;;;;;;;19.30;13.00;;;;;;;16.04;100.00;101108.91;5011836;28;20100;-82
2022/05/10 01:04:08;;;;;;;16.33;12.60;;;;;;;15.68;100.00;101107.94;5032854;28;20036;-84
2022/05/10 01:06:46;;;;;;;21.20;13.95;;;;;;;15.68;100.00;101107.09;5032874;28;20030;-83
2022/05/10 01:09:33;;;;;;;22.25;13.35;;;;;;;15.45;100.00;101102.59;5033297;28;20403;-85
2022/05/10 01:12:11;;;;;;;20.13;13.55;;;;;;;15.56;100.00;101103.22;5037659;28;20033;-83
2022/05/10 01:14:57;;;;;;;26.88;14.73;;;;;;;15.65;100.00;101107.47;5037803;28;20034;-83
2022/05/10 01:17:23;;;;;;;21.15;13.95;;;;;;;15.75;100.00;101108.88;5037058;28;20496;-83
2022/05/10 01:19:49;;;;;;;22.77;13.55;;;;;;;15.93;100.00;101109.38;5037174;28;20064;-81
2022/05/10 01:22:32;;;;;;;20.60;12.57;;;;;;;15.88;100.00;101106.41;5036607;28;20030;-83
2022/05/10 01:25:24;;;;;;;16.55;13.15;;;;;;;15.85;100.00;101109.44;5036423;28;20373;-81
2022/05/10 01:27:56;;;;;;;21.70;13.07;;;;;;;15.77;100.00;101112.22;5032277;28;20511;-86
2022/05/10 01:30:27;;;;;;;17.15;13.43;;;;;;;15.77;100.00;101108.72;5036296;28;20345;-82
2022/05/10 01:36:28;;;;;;;17.77;13.45;;;;;;;15.63;100.00;101099.66;5036694;28;20091;-83
2022/05/10 01:39:07;;;;;;;29.88;14.77;;;;;;;15.63;100.00;101094.31;5036768;28;20033;-82
2022/05/10 01:41:47;;;;;;;20.58;14.07;;;;;;;15.48;100.00;101096.09;5036556;28;20396;-81
2022/05/10 01:44:31;;;;;;;22.70;13.45;;;;;;;15.49;100.00;101103.09;5036063;28;20037;-81
2022/05/10 01:47:08;;;;;;;28.15;14.23;;;;;;;15.39;100.00;101086.47;5036065;28;20033;-81
2022/05/10 01:49:46;;;;;;;21.60;13.60;;;;;;;15.42;100.00;101097.63;5036030;28;20117;-80
2022/05/10 01:52:24;;;;;;;24.88;13.88;;;;;;;15.46;100.00;101098.94;5035993;28;20026;-84
2022/05/10 01:55:01;;;;;;;24.02;13.18;;;;;;;15.58;100.00;101093.19;5018308;28;20481;-81
2022/05/10 01:57:29;;;;;;;20.63;12.82;;;;;;;15.66;100.00;101093.94;5036022;28;20464;-81
2022/05/10 02:00:27;;;;;;;18.67;13.38;;;;;;;15.68;100.00;101093.75;5036367;28;20476;-82
2022/05/10 02:03:05;;;;;;;20.98;13.82;;;;;;;15.77;100.00;101090.84;5024584;28;20049;-83
2022/05/10 02:05:34;;;;;;;21.40;12.93;;;;;;;15.80;100.00;101094.97;5035614;28;20029;-82
2022/05/10 02:08:10;;;;;;;21.92;13.68;;;;;;;15.74;100.00;101090.38;5036133;28;20116;-83
2022/05/10 02:10:40;;;;;;;19.02;12.82;;;;;;;15.43;100.00;101087.78;5035578;28;20137;-81
2022/05/10 02:13:13;;;;;;;22.38;13.82;;;;;;;15.25;100.00;101084.56;5035463;28;20045;-87
2022/05/10 02:15:51;;;;;;;18.98;12.95;;;;;;;15.01;100.00;101083.72;5035529;28;20480;-81
2022/05/10 02:18:35;;;;;;;25.77;14.43;;;;;;;14.86;100.00;101087.34;5035597;28;20380;-83
2022/05/10 02:21:14;;;;;;;24.30;14.15;;;;;;;14.66;100.00;101089.63;5035035;28;20029;-81
2022/05/10 02:24:00;;;;;;;28.70;13.48;;;;;;;14.78;100.00;101085.53;5035548;28;20460;-81
2022/05/10 02:26:35;;;;;;;16.67;11.93;;;;;;;14.91;100.00;101083.13;5017824;28;20053;-83
2022/05/10 02:29:31;;;;;;;24.77;13.43;;;;;;;14.83;100.00;101077.84;5035298;28;20033;-82
2022/05/10 02:35:18;;;;;;;20.05;12.75;;;;;;;14.81;100.00;101084.38;5002251;28;20058;-81
2022/05/10 02:37:44;;;;;;;19.83;13.57;;;;;;;14.59;100.00;101077.13;5035080;28;20361;-82
2022/05/10 02:40:10;;;;;;;23.88;13.88;;;;;;;14.69;100.00;101077.75;5034724;28;20029;-81
2022/05/10 02:42:36;;;;;;;23.90;13.65;;;;;;;14.81;100.00;101073.72;5034851;28;20037;-85
2022/05/10 02:45:04;;;;;;;22.25;13.18;;;;;;;14.80;100.00;101072.88;5034676;28;20545;-82
2022/05/10 02:47:33;;;;;;;22.25;13.07;;;;;;;14.79;100.00;101076.53;5036157;28;20507;-82
2022/05/10 02:49:59;;;;;;;19.55;13.93;;;;;;;14.80;100.00;101066.69;5036010;28;20033;-83
2022/05/10 02:52:25;;;;;;;22.70;13.23;;;;;;;14.88;100.00;101072.81;5037429;28;20048;-83
2022/05/10 02:55:00;;;;;;;20.35;12.45;;;;;;;14.82;100.00;101068.19;5038118;28;20026;-82
2022/05/10 02:57:26;;;;;;;17.77;12.38;;;;;;;14.98;100.00;101073.41;5038397;28;20069;-82
2022/05/10 02:59:56;;;;;;;20.48;12.75;;;;;;;14.96;100.00;101075.44;5037032;28;20440;-82
2022/05/10 03:02:27;;;;;;;21.52;11.63;;;;;;;14.99;100.00;101085.75;5035136;28;20041;-82
2022/05/10 03:04:56;;;;;;;20.85;12.95;;;;;;;14.92;100.00;101081.28;5035236;28;20116;-82
2022/05/10 03:07:23;;;;;;;20.88;13.35;;;;;;;14.58;100.00;101076.34;5035196;28;20392;-83
2022/05/10 03:09:49;;;;;;;20.00;13.25;;;;;;;14.47;100.00;101074.03;5035156;28;20030;-82
2022/05/10 03:12:15;;;;;;;27.05;13.68;;;;;;;14.35;100.00;101070.09;5034990;28;20036;-82
2022/05/10 03:14:40;;;;;;;23.08;13.50;;;;;;;14.47;100.00;101068.72;5034263;28;20033;-82
2022/05/10 03:17:08;;;;;;;29.90;13.95;;;;;;;14.58;100.00;101071.00;5034433;28;20030;-82
2022/05/10 03:19:34;;;;;;;17.85;14.00;;;;;;;14.63;100.00;101073.97;5034222;28;20468;-82
2022/05/10 03:21:59;;;;;;;26.35;14.70;;;;;;;14.66;100.00;101073.59;5034279;28;20087;-84
2022/05/10 03:24:26;;;;;;;22.33;13.38;;;;;;;14.78;100.00;101072.19;5034023;28;20046;-81
2022/05/10 03:26:52;;;;;;;23.70;13.85;;;;;;;14.75;100.00;101069.88;5034163;28;20113;-82
2022/05/10 03:29:19;;;;;;;19.30;12.73;;;;;;;14.73;100.00;101074.56;5034221;28;20029;-81
2022/05/10 03:31:45;;;;;;;18.30;12.52;;;;;;;14.82;100.00;101073.50;5033420;28;20116;-82
2022/05/10 03:36:58;;;;;;;18.95;13.48;;;;;;;14.44;100.00;101063.72;5034100;28;20084;-84
2022/05/10 03:39:24;;;;;;;21.45;14.25;;;;;;;14.45;100.00;101065.38;5034203;28;20025;-84
2022/05/10 03:41:49;;;;;;;18.75;13.07;;;;;;;14.63;100.00;101068.63;5040307;28;20045;-83
2022/05/10 03:44:15;;;;;;;23.45;13.27;;;;;;;14.40;100.00;101073.06;5034187;28;20033;-83
2022/05/10 03:46:40;;;;;;;21.85;13.45;;;;;;;14.29;100.00;101078.75;5034036;28;20037;-83
2022/05/10 03:49:06;;;;;;;27.55;14.52;;;;;;;14.06;100.00;101075.16;5034063;28;20037;-83
2022/05/10 03:51:32;;;;;;;26.70;14.07;;;;;;;14.06;100.00;101077.81;5033787;28;20030;-83
2022/05/10 03:53:58;;;;;;;26.70;14.50;;;;;;;14.29;100.00;101086.75;5033940;28;20049;-83
2022/05/10 03:56:24;;;;;;;22.38;14.07;;;;;;;14.33;100.00;101072.06;5034910;28;20038;-82
2022/05/10 03:58:49;;;;;;;23.45;13.95;;;;;;;14.30;100.00;101081.25;5034327;28;20164;-83
2022/05/10 04:01:18;;;;;;;21.42;14.45;;;;;;;14.33;100.00;101082.72;5033923;28;20068;-82
2022/05/10 04:03:44;;;;;;;21.17;14.80;;;;;;;14.49;100.00;101088.03;5035009;28;20033;-83
2022/05/10 04:06:10;;;;;;;26.95;14.70;;;;;;;14.33;100.00;101094.25;5034008;28;20042;-82
2022/05/10 04:08:36;;;;;;;23.08;15.82;;;;;;;14.18;100.00;101095.13;5033740;28;20040;-81
2022/05/10 04:11:08;;;;;;;21.38;15.70;;;;;;;14.05;100.00;101090.34;5044859;28;20060;-81
2022/05/10 04:13:34;;;;;;;27.15;15.02;;;;;;;13.97;100.00;101091.19;5047979;28;20048;-83
2022/05/10 04:16:00;;;;;;;23.65;16.10;;;;;;;13.90;100.00;101095.53;5047482;28;20056;-81
2022/05/10 04:18:27;;;;;;;22.45;15.20;;;;;;;13.96;100.00;101102.84;5038799;28;20492;-81
2022/05/10 04:20:53;;;;;;;22.25;14.30;;;;;;;14.25;100.00;101101.44;5033334;28;20029;-82
2022/05/10 04:23:18;;;;;;;20.45;14.70;;;;;;;14.48;100.00;101105.06;5033406;28;20080;-84
2022/05/10 04:25:44;;;;;;;22.65;13.85;;;;;;;14.68;100.00;101100.94;5033529;28;20057;-83
2022/05/10 04:28:10;;;;;;;26.50;15.13;;;;;;;14.75;100.00;101109.91;5033121;28;20548;-82
2022/05/10 04:30:35;;;;;;;23.65;14.23;;;;;;;14.72;100.00;101109.41;5033201;28;20034;-83
2022/05/10 04:33:01;;;;;;;22.42;14.48;;;;;;;14.82;100.00;101108.19;5033181;28;20053;-82
2022/05/10 04:35:27;;;;;;;34.55;16.02;;;;;;;14.80;100.00;101109.41;5033165;28;20480;-83
2022/05/10 04:37:52;;;;;;;25.13;14.98;;;;;;;14.65;100.00;101114.63;5032963;28;20040;-83
2022/05/10 04:43:05;;;;;;;26.13;15.80;;;;;;;14.37;100.00;101116.09;5032937;28;20045;-87
2022/05/10 04:45:32;;;;;;;26.88;14.77;;;;;;;14.38;100.00;101120.44;5032968;28;20141;-82
2022/05/10 04:47:57;;;;;;;31.00;16.35;;;;;;;14.61;100.00;101117.84;5037168;28;20033;-84
2022/05/10 04:50:23;;;;;;;28.38;16.33;;;;;;;14.68;100.00;101124.94;5035369;28;20103;-83
2022/05/10 04:52:49;;;;;;;28.80;16.88;;;;;;;14.64;100.00;101123.66;5034721;28;21038;-86
2022/05/10 04:55:14;;;;;;;31.98;15.75;;;;;;;14.74;100.00;101129.63;5036083;28;20038;-82
2022/05/10 04:57:41;;;;;;;41.53;16.92;;;;;;;14.72;100.00;101125.44;5040705;28;20025;-86
2022/05/10 05:00:12;;;;;;;30.60;16.83;;;;;;;14.78;100.00;101136.25;5035265;28;20058;-87
2022/05/10 05:02:38;;;;;;;31.95;16.30;;;;;;;14.89;100.00;101135.03;5030165;28;20492;-81
2022/05/10 05:05:05;;;;;;;30.77;15.43;;;;;;;15.05;100.00;101137.59;5030898;28;20468;-84
2022/05/10 05:07:30;;;;;;;29.00;16.35;;;;;;;14.96;100.00;101139.50;5031662;28;20025;-82
2022/05/10 05:09:56;;;;;;;30.90;15.63;;;;;;;14.86;100.00;101138.03;5032078;28;20036;-81
2022/05/10 05:12:22;;;;;;;28.63;17.60;;;;;;;14.92;100.00;101132.00;5032165;28;20037;-83
2022/05/10 05:14:48;;;;;;;30.23;16.08;;;;;;;15.14;100.00;101136.56;5032085;28;20084;-80
2022/05/10 05:17:14;;;;;;;29.20;16.05;;;;;;;15.23;100.00;101148.00;5033017;28;20033;-82
2022/05/10 05:19:39;;;;;;;23.92;15.20;;;;;;;15.40;100.00;101142.38;5033160;28;20030;-81
2022/05/10 05:22:05;;;;;;;23.30;14.40;;;;;;;15.60;100.00;101142.75;5032980;28;20515;-83
2022/05/10 05:24:31;;;;;;;26.92;14.88;;;;;;;15.79;100.00;101141.41;5033707;28;20026;-82
2022/05/10 05:26:57;;;;;;;19.88;14.18;;;;;;;15.79;100.00;101152.94;5033186;28;20388;-86
2022/05/10 05:29:23;;;;;;;28.23;14.65;;;;;;;16.03;100.00;101139.38;5033605;28;20456;-85
2022/05/10 05:31:51;;;;;;;23.10;14.02;;;;;;;16.28;100.00;101144.44;5033983;28;20041;-86
2022/05/10 05:34:17;;;;;;;24.08;13.70;;;;;;;16.48;100.00;101154.41;5021950;28;20030;-87
2022/05/10 05:36:44;;;;;;;22.63;13.68;;;;;;;16.88;100.00;101152.28;5042519;28;20030;-83
2022/05/10 05:39:09;;;;;;;21.58;13.23;;;;;;;17.30;100.00;101154.22;5038761;28;20111;-85
2022/05/10 05:41:35;;;;;;;23.88;12.98;;;;;;;17.36;99.09;101153.44;5035274;28;20041;-90
2022/05/10 05:44:01;;;;;;;21.92;12.40;;;;;;;17.92;96.73;101159.75;5033855;28;20083;-86
2022/05/10 05:46:26;;;;;;;19.80;12.32;;;;;;;18.00;94.27;101159.59;5033934;28;20029;-88
2022/05/10 05:48:52;;;;;;;21.73;12.65;;;;;;;18.19;94.30;101166.16;5034189;28;20118;-86
2022/05/10 05:51:17;;;;;;;21.65;11.95;;;;;;;18.44;92.35;101161.97;5000117;28;20072;-88
2022/05/10 05:53:43;;;;;;;20.50;12.13;;;;;;;18.92;89.19;101166.38;5033879;28;20047;-86
2022/05/10 05:56:11;;;;;;;23.13;11.13;;;;;;;19.44;87.68;101178.34;5035315;28;20025;-85
2022/05/10 05:58:39;;;;;;;17.65;10.75;;;;;;;20.46;81.43;101168.00;5037114;28;20134;-87
2022/05/10 06:01:15;;;;;;;14.52;10.60;;;;;;;21.36;76.18;101169.72;5039553;28;20168;-83
2022/05/10 06:03:44;;;;;;;17.73;9.98;;;;;;;22.51;70.53;101169.16;5037683;28;20571;-87
2022/05/10 06:06:10;;;;;;;17.27;9.77;;;;;;;23.25;66.21;101166.22;5036626;28;20120;-88
2022/05/10 06:08:36;;;;;;;18.90;9.65;;;;;;;22.41;68.35;101174.28;5037082;28;20036;-82
2022/05/10 06:11:02;;;;;;;26.45;10.15;;;;;;;21.94;70.10;101173.06;5037113;28;20567;-86
2022/05/10 06:13:27;;;;;;;17.98;9.85;;;;;;;22.49;69.07;101171.28;5035211;28;20096;-84
2022/05/10 06:15:53;;;;;;;22.92;9.23;;;;;;;22.63;67.63;101175.50;5036264;28;20530;-87
2022/05/10 06:18:19;;;;;;;19.95;9.13;;;;;;;23.24;66.36;101182.66;5044494;28;20025;-82
2022/05/10 06:20:48;;;;;;;18.45;9.60;;;;;;;23.90;62.06;101180.63;5043452;28;20087;-84
2022/05/10 06:23:14;;;;;;;17.95;9.20;;;;;;;23.46;64.20;101186.56;5025681;28;20052;-85
2022/05/10 06:25:40;;;;;;;17.25;8.68;;;;;;;23.33;66.18;101176.72;5044518;28;20399;-83
2022/05/10 06:28:06;;;;;;;13.65;8.50;;;;;;;24.25;62.31;101178.00;5045298;28;20039;-85
2022/05/10 06:30:32;;;;;;;16.35;8.20;;;;;;;25.30;57.98;101183.19;5043468;28;20025;-85
2022/05/10 06:32:59;;;;;;;15.13;8.60;;;;;;;25.77;55.74;101183.78;5044585;28;20040;-87
2022/05/10 06:35:27;;;;;;;12.63;8.00;;;;;;;25.33;57.29;101174.56;5026205;28;20047;-85
2022/05/10 06:40:37;;;;;;;18.70;9.20;;;;;;;26.39;53.12;101182.63;5042484;28;20028;-89
2022/05/10 06:43:03;;;;;;;14.35;9.35;;;;;;;26.84;51.75;101182.47;5026138;28;20407;-91
2022/05/10 06:45:30;;;;;;;18.02;9.07;;;;;;;26.58;51.89;101177.72;5045927;28;20036;-85
2022/05/10 06:47:56;;;;;;;22.08;9.73;;;;;;;25.48;54.23;101180.28;5049090;28;20025;-83
2022/05/10 06:50:24;;;;;;;18.85;10.15;;;;;;;24.53;58.44;101175.34;5037938;28;20501;-86
2022/05/10 06:52:54;;;;;;;17.15;10.15;;;;;;;24.28;60.72;101176.69;5053524;28;20318;-84
2022/05/10 06:55:22;;;;;;;22.90;9.57;;;;;;;24.49;61.60;101173.38;5041767;28;20040;-84
2022/05/10 06:57:48;;;;;;;15.52;10.82;;;;;;;23.34;64.64;101169.41;5044842;28;20025;-85
2022/05/10 07:00:14;;;;;;;21.85;9.60;;;;;;;24.77;61.34;101157.16;5043987;28;20029;-83
2022/05/10 07:02:40;;;;;;;19.65;10.00;;;;;;;26.08;56.22;101172.38;5032050;28;20045;-83
2022/05/10 07:05:07;;;;;;;17.45;10.38;;;;;;;26.80;52.82;101167.69;5042859;28;20099;-80
2022/05/10 07:07:32;;;;;;;15.40;9.27;;;;;;;26.18;54.26;101167.91;5042741;28;20028;-84
2022/05/10 07:09:58;;;;;;;17.08;10.13;;;;;;;25.69;54.84;101169.53;5047421;28;20025;-88
2022/05/10 07:12:23;;;;;;;15.15;7.97;;;;;;;26.01;53.66;101166.28;5033883;28;20542;-86
2022/05/10 07:14:50;;;;;;;18.80;10.20;;;;;;;24.98;56.61;101167.41;5046991;28;20092;-84
2022/05/10 07:17:15;;;;;;;15.48;10.27;;;;;;;25.67;54.25;101162.72;5046223;28;20492;-83
2022/05/10 07:19:41;;;;;;;24.98;10.20;;;;;;;26.06;51.58;101167.16;5046499;28;20032;-84
2022/05/10 07:22:07;;;;;;;19.67;10.38;;;;;;;25.49;53.11;101157.47;5046281;28;20037;-83
2022/05/10 07:24:32;;;;;;;17.70;9.93;;;;;;;25.91;52.33;101161.50;5039333;28;20036;-82
2022/05/10 07:26:58;;;;;;;20.58;9.27;;;;;;;26.58;49.81;101166.84;5038650;28;20067;-83
2022/05/10 07:29:23;;;;;;;16.92;9.90;;;;;;;27.36;47.90;101160.16;5032555;28;20040;-85
2022/05/10 07:31:49;;;;;;;17.38;8.73;;;;;;;27.16;49.11;101158.88;5028985;28;20022;-83
2022/05/10 07:34:15;;;;;;;16.45;9.40;;;;;;;27.55;47.86;101159.56;5033876;28;20034;-83
2022/05/10 07:36:41;;;;;;;19.90;9.65;;;;;;;26.67;48.56;101154.47;5034055;28;20038;-84
2022/05/10 07:39:10;;;;;;;16.55;9.50;;;;;;;25.59;52.42;101152.25;5034241;28;20029;-88
2022/05/10 07:41:37;;;;;;;21.17;10.48;;;;;;;25.55;53.87;101156.56;5033473;28;20141;-82
2022/05/10 07:44:05;;;;;;;17.73;10.27;;;;;;;25.83;52.46;101153.75;5033644;28;20549;-83
2022/05/10 07:46:30;;;;;;;16.92;9.10;;;;;;;26.20;52.70;101148.66;5034173;28;20109;-83
2022/05/10 07:48:56;;;;;;;13.45;9.13;;;;;;;25.50;52.53;101159.16;5034350;28;20428;-85
2022/05/10 07:51:22;;;;;;;13.18;9.23;;;;;;;25.60;52.22;101153.91;5035967;28;20021;-85
2022/05/10 07:53:51;;;;;;;18.88;7.38;;;;;;;26.52;52.32;101156.97;5034959;28;20045;-85
2022/05/10 07:56:17;;;;;;;16.08;8.45;;;;;;;26.79;48.76;101159.75;5017073;28;20025;-86
2022/05/10 07:58:43;;;;;;;18.17;10.40;;;;;;;26.27;50.16;101159.34;5034396;28;20040;-86
2022/05/10 08:01:09;;;;;;;16.42;9.30;;;;;;;25.72;52.22;101156.56;5034051;28;20025;-85
2022/05/10 08:03:35;;;;;;;14.35;8.57;;;;;;;26.23;50.06;101158.19;5033493;28;20480;-85
2022/05/10 08:06:02;;;;;;;16.70;9.77;;;;;;;25.47;51.22;101155.03;5033646;28;20758;-85
2022/05/10 08:08:33;;;;;;;14.02;8.07;;;;;;;26.79;49.82;101154.31;5015969;28;20037;-90
2022/05/10 08:11:00;;;;;;;18.42;7.70;;;;;;;28.16;45.63;101158.16;5034573;28;20115;-81
2022/05/10 08:13:28;;;;;;;12.88;7.07;;;;;;;29.18;40.90;101154.81;5033261;28;20031;-82
2022/05/10 08:15:55;;;;;;;17.13;8.30;;;;;;;29.73;39.29;101156.81;5033404;28;20091;-83
2022/05/10 08:18:22;;;;;;;16.63;7.28;;;;;;;29.82;39.06;101156.25;5032840;28;20068;-81
2022/05/10 08:20:50;;;;;;;14.07;7.68;;;;;;;29.38;41.03;101158.69;5033348;28;20072;-82
2022/05/10 08:23:22;;;;;;;16.80;10.85;;;;;;;28.12;44.86;101161.66;5015483;28;20566;-88
2022/05/10 08:25:49;;;;;;;18.65;10.45;;;;;;;27.38;47.93;101152.53;5033300;28;20037;-85
2022/05/10 08:28:15;;;;;;;23.13;9.20;;;;;;;28.27;47.24;101159.06;5015539;28;20120;-83
2022/05/10 08:30:42;;;;;;;19.55;10.60;;;;;;;28.13;45.71;101158.69;5033067;28;20120;-83
2022/05/10 08:33:10;;;;;;;24.63;9.55;;;;;;;28.95;44.70;101149.84;5032342;28;20018;-81
2022/05/10 08:35:37;;;;;;;22.98;11.45;;;;;;;29.18;43.12;101143.91;5033629;28;20037;-83
2022/05/10 08:38:03;;;;;;;17.60;11.85;;;;;;;28.11;44.83;101149.13;5033949;28;20041;-83
2022/05/10 08:40:36;;;;;;;16.50;12.05;;;;;;;27.23;46.62;101148.63;5033129;28;20033;-83
2022/05/10 08:43:07;;;;;;;17.20;11.63;;;;;;;26.99;48.60;101146.44;5032624;28;20130;-82
2022/05/10 08:45:40;;;;;;;20.03;11.90;;;;;;;26.58;50.44;101140.47;5015073;28;20087;-82
2022/05/10 08:48:06;;;;;;;20.45;10.93;;;;;;;26.46;50.81;101136.22;5014988;28;20560;-81
2022/05/10 08:50:31;;;;;;;20.98;10.57;;;;;;;26.58;52.72;101139.66;5032816;28;20116;-82
2022/05/10 08:52:57;;;;;;;21.05;11.27;;;;;;;27.11;51.33;101147.91;5031634;28;20033;-80
2022/05/10 08:55:30;;;;;;;22.77;11.65;;;;;;;26.47;50.55;101148.75;5038062;28;20443;-82
2022/05/10 08:58:26;;;;;;;18.27;10.32;;;;;;;26.81;50.81;101144.88;5032444;28;20065;-81
2022/05/10 09:00:55;;;;;;;22.45;10.13;;;;;;;26.79;50.65;101152.44;5031937;28;20461;-88
2022/05/10 09:03:43;;;;;;;17.83;10.25;;;;;;;26.56;50.35;101152.69;5031268;28;20487;-81
2022/05/10 09:06:13;;;;;;;19.92;9.73;;;;;;;26.33;50.12;101152.91;4998177;28;20045;-83
2022/05/10 09:09:19;;;;;;;11.98;8.35;;;;;;;26.45;48.89;101145.47;5033381;28;20037;-86
2022/05/10 09:11:55;;;;;;;16.42;10.48;;;;;;;26.50;49.92;101149.06;5037172;28;20033;-84
2022/05/10 09:17:44;;;;;;;21.75;9.35;;;;;;;27.03;46.19;101142.94;5019646;28;20041;-84
2022/05/10 09:20:11;;;;;;;26.45;11.10;;;;;;;26.73;47.31;101145.28;5031753;28;20030;-84
2022/05/10 09:23:33;;;;;;;16.10;10.52;;;;;;;26.89;47.23;101141.69;5040597;28;20025;-84
2022/05/10 09:26:00;;;;;;;20.53;10.47;;;;;;;27.01;49.23;101147.00;5014256;28;20022;-84
2022/05/10 09:28:41;;;;;;;19.33;11.70;;;;;;;27.00;48.64;101148.09;4981279;28;20356;-83
2022/05/10 09:34:49;;;;;;;26.15;12.10;;;;;;;26.87;49.30;101145.75;4997092;28;20069;-81
2022/05/10 09:37:28;;;;;;;17.80;11.20;;;;;;;27.06;48.78;101149.78;5018002;28;20049;-83
2022/05/10 09:40:00;;;;;;;17.52;10.73;;;;;;;27.65;47.39;101145.19;5037480;28;20044;-81
2022/05/10 09:42:27;;;;;;;20.27;11.75;;;;;;;27.71;45.05;101149.59;5036431;28;20037;-81
2022/05/10 09:45:00;;;;;;;21.83;13.25;;;;;;;27.52;45.11;101143.75;5032038;28;20040;-82
2022/05/10 09:47:27;;;;;;;16.90;11.48;;;;;;;28.10;46.37;101158.41;5019203;28;20061;-83
2022/05/10 09:50:17;;;;;;;20.35;12.32;;;;;;;28.04;44.24;101154.75;5037467;28;20091;-81
2022/05/10 09:52:44;;;;;;;23.02;13.20;;;;;;;27.82;44.02;101155.97;5036131;28;20041;-82
2022/05/10 09:55:30;;;;;;;20.08;12.23;;;;;;;28.06;44.25;101141.75;5036663;28;20060;-81
2022/05/10 09:57:59;;;;;;;20.05;12.52;;;;;;;28.09;42.62;101151.28;5039246;28;20064;-80
2022/05/10 10:00:40;;;;;;;19.73;11.80;;;;;;;27.78;43.40;101144.75;5037795;28;20041;-82
2022/05/10 10:03:06;;;;;;;15.40;10.68;;;;;;;28.43;41.79;101141.69;5039464;28;20099;-80
2022/05/10 10:05:33;;;;;;;19.58;10.25;;;;;;;28.83;41.37;101121.97;5043207;28;20469;-79
2022/05/10 10:07:59;;;;;;;21.95;10.23;;;;;;;28.99;42.36;101137.31;5039125;28;20033;-80
2022/05/10 10:10:35;;;;;;;15.30;11.73;;;;;;;28.48;40.44;101133.53;5036707;28;20087;-81
2022/05/10 10:13:24;;;;;;;21.17;11.38;;;;;;;28.56;40.94;101143.13;5035322;28;20040;-80
2022/05/10 10:15:51;;;;;;;21.38;11.43;;;;;;;27.96;42.41;101130.75;5018333;28;20427;-81
2022/05/10 10:18:49;;;;;;;20.33;12.95;;;;;;;28.35;42.08;101135.91;5039474;28;20042;-80
2022/05/10 10:21:22;;;;;;;20.30;12.20;;;;;;;28.75;40.41;101136.13;5039260;28;20038;-81
2022/05/10 10:23:58;;;;;;;20.50;11.43;;;;;;;27.95;41.16;101142.72;5046311;28;20051;-81
2022/05/10 10:26:33;;;;;;;16.30;9.40;;;;;;;28.60;41.74;101131.38;5045116;28;20069;-80
2022/05/10 10:29:14;;;;;;;24.75;11.15;;;;;;;29.03;38.67;101129.41;5037248;28;20421;-80
2022/05/10 10:32:00;;;;;;;15.77;8.88;;;;;;;28.91;38.57;101123.34;5038517;28;20036;-83
2022/05/10 10:34:47;;;;;;;21.15;9.15;;;;;;;29.00;39.01;101119.81;5036865;28;20033;-81
2022/05/10 10:37:28;;;;;;;21.58;8.40;;;;;;;29.07;39.34;101114.09;5036897;28;20038;-82
2022/05/10 10:40:11;;;;;;;16.33;9.48;;;;;;;29.35;38.32;101123.75;5036306;28;20091;-81
2022/05/10 10:42:56;;;;;;;16.10;9.10;;;;;;;29.60;38.89;101121.84;5035617;28;20091;-81
2022/05/10 10:45:46;;;;;;;15.20;7.95;;;;;;;30.08;37.51;101112.25;5016554;28;20393;-80
2022/05/10 10:48:39;;;;;;;15.77;8.25;;;;;;;29.99;36.21;101116.66;4998424;28;20104;-82
2022/05/10 10:51:05;;;;;;;16.83;7.70;;;;;;;29.79;37.39;101110.34;4991793;28;20050;-81
2022/05/10 10:53:34;;;;;;;15.43;7.10;;;;;;;30.09;35.28;101105.69;5034696;28;20558;-80
2022/05/10 10:56:21;;;;;;;20.35;6.65;;;;;;;30.32;32.79;101114.38;5036753;28;20385;-83
2022/05/10 10:59:01;;;;;;;16.00;6.22;;;;;;;30.89;32.92;101098.25;5018863;28;20033;-85
2022/05/10 11:01:46;;;;;;;15.85;6.45;;;;;;;31.04;32.60;101106.41;5035244;28;20041;-84
2022/05/10 11:04:55;;;;;;;11.52;5.90;;;;;;;30.69;31.79;101101.13;5034892;28;20120;-84
2022/05/10 11:07:29;;;;;;;12.60;5.90;;;;;;;30.92;31.83;101096.88;5035508;28;20037;-85
2022/05/10 11:10:12;;;;;;;11.32;5.95;;;;;;;30.50;32.44;101095.44;5035633;28;20037;-85
2022/05/10 11:13:05;;;;;;;12.52;5.72;;;;;;;29.93;32.66;101089.59;5039894;28;20041;-85
2022/05/10 11:15:31;;;;;;;11.48;5.10;;;;;;;30.47;32.21;101087.81;5009690;28;20491;-83
2022/05/10 11:18:15;;;;;;;14.52;5.90;;;;;;;30.72;31.62;101079.47;5017983;28;20061;-88
2022/05/10 11:20:52;;;;;;;14.70;5.00;;;;;;;29.53;31.81;101082.25;5034012;28;20041;-85
2022/05/10 11:23:46;;;;;;;14.32;5.82;;;;;;;29.28;31.92;101071.31;5015719;28;20045;-88
2022/05/10 11:26:36;;;;;;;17.08;5.70;;;;;;;28.72;32.02;101073.91;5016865;28;20033;-89
2022/05/10 11:29:37;;;;;;;15.30;5.57;;;;;;;28.95;32.26;101073.41;5016989;28;20030;-84
2022/05/10 11:32:13;;;;;;;17.05;5.07;;;;;;;28.42;37.11;101057.41;5034941;28;20512;-85
2022/05/10 11:35:13;;;;;;;10.13;4.85;;;;;;;28.51;37.57;101053.06;5020331;28;20044;-84
2022/05/10 11:38:00;;;;;;;17.70;5.70;;;;;;;27.76;36.34;101059.78;5038554;28;20037;-89
2022/05/10 11:40:31;;;;;;;13.82;6.25;;;;;;;27.54;38.02;101056.34;5035436;28;20068;-81
2022/05/10 11:43:21;;;;;;;13.93;5.72;;;;;;;27.04;38.32;101056.72;5036269;28;20060;-80
2022/05/10 11:45:52;;;;;;;17.13;5.38;;;;;;;26.61;39.76;101046.72;5026309;28;20036;-81
2022/05/10 11:48:45;;;;;;;8.77;4.80;;;;;;;26.56;41.15;101041.19;5033557;28;20037;-81